AEE824 LGAV-EDDH
Flight info
| Callsign | AEE824 |
|---|---|
| Flight time | 3h 3m |
| Altitude | 23000 |
| Route | KRO2N KRO T162 NEVRA/N0461F310 UT162 KOROS/N0454F380 UN133 PEREN UL863 EVIVI DCT OKANA DCT NEPOS DCT TONDO DCT GITAS DCT NAVTI DCT BODAL DCT ODLIV DCT HDO M748 RENDO DCT BOLBO DCT SOGMA M748 RARUP RARUP6A |
| Aircraft | A32N/M-V/N |
Departure
| Time | 2026-04-21 06:11 |
|---|---|
| Airport | Athens Eleftherios Venizelos International Airport (LGAV) |
Arrival
| Time | 2026-04-21 09:14 |
|---|---|
| Airport | Hamburg Helmut Schmidt Airport (EDDH) |
| Time | Latitude | Longitude | Altitude | Speed | Heading |
|---|---|---|---|---|---|
| 2026-04-21 06:00 | 37.93561 | 23.94796 | 301 ft | 0 kts | 306° |
| 2026-04-21 06:02 | 37.93560 | 23.94796 | 301 ft | 1 kts | 306° |
| 2026-04-21 06:02 | 37.93551 | 23.94812 | 301 ft | 2 kts | 306° |
| 2026-04-21 06:02 | 37.93541 | 23.94829 | 303 ft | 2 kts | 306° |
| 2026-04-21 06:02 | 37.93532 | 23.94846 | 302 ft | 2 kts | 306° |
| 2026-04-21 06:03 | 37.93522 | 23.94862 | 301 ft | 2 kts | 306° |
| 2026-04-21 06:03 | 37.93509 | 23.94872 | 302 ft | 2 kts | 41° |
| 2026-04-21 06:03 | 37.93508 | 23.94871 | 300 ft | 0 kts | 43° |
| 2026-04-21 06:04 | 37.93524 | 23.94888 | 300 ft | 11 kts | 38° |
| 2026-04-21 06:05 | 37.93583 | 23.94946 | 300 ft | 11 kts | 37° |
| 2026-04-21 06:05 | 37.93600 | 23.95015 | 304 ft | 12 kts | 99° |
| 2026-04-21 06:05 | 37.93609 | 23.95095 | 302 ft | 9 kts | 51° |
| 2026-04-21 06:05 | 37.93659 | 23.95181 | 299 ft | 14 kts | 98° |
| 2026-04-21 06:06 | 37.93718 | 23.95345 | 299 ft | 22 kts | 39° |
| 2026-04-21 06:06 | 37.93837 | 23.95460 | 299 ft | 21 kts | 37° |
| 2026-04-21 06:06 | 37.93965 | 23.95579 | 299 ft | 26 kts | 36° |
| 2026-04-21 06:06 | 37.94098 | 23.95691 | 298 ft | 20 kts | 33° |
| 2026-04-21 06:07 | 37.94245 | 23.95846 | 297 ft | 34 kts | 37° |
| 2026-04-21 06:07 | 37.94425 | 23.96021 | 301 ft | 31 kts | 37° |
| 2026-04-21 06:07 | 37.94575 | 23.96160 | 299 ft | 21 kts | 35° |
| 2026-04-21 06:07 | 37.94736 | 23.96311 | 301 ft | 34 kts | 36° |
| 2026-04-21 06:08 | 37.94908 | 23.96473 | 301 ft | 28 kts | 38° |
| 2026-04-21 06:08 | 37.95046 | 23.96606 | 302 ft | 24 kts | 37° |
| 2026-04-21 06:08 | 37.95172 | 23.96726 | 303 ft | 20 kts | 37° |
| 2026-04-21 06:08 | 37.95271 | 23.96819 | 304 ft | 15 kts | 37° |
| 2026-04-21 06:09 | 37.95297 | 23.96892 | 305 ft | 5 kts | 109° |
| 2026-04-21 06:09 | 37.95277 | 23.96932 | 305 ft | 0 kts | 125° |
| 2026-04-21 06:09 | 37.95264 | 23.96955 | 308 ft | 9 kts | 126° |
| 2026-04-21 06:09 | 37.95246 | 23.96985 | 308 ft | 0 kts | 128° |
| 2026-04-21 06:10 | 37.95203 | 23.97020 | 309 ft | 6 kts | 184° |
| 2026-04-21 06:10 | 37.95159 | 23.96993 | 309 ft | 8 kts | 215° |
| 2026-04-21 06:10 | 37.95086 | 23.96924 | 308 ft | 42 kts | 217° |
| 2026-04-21 06:10 | 37.94589 | 23.96451 | 296 ft | 135 kts | 217° |
| 2026-04-21 06:11 | 37.93629 | 23.95546 | 649 ft | 190 kts | 216° |
| 2026-04-21 06:11 | 37.92527 | 23.94550 | 1875 ft | 198 kts | 216° |
| 2026-04-21 06:11 | 37.91380 | 23.93503 | 2995 ft | 208 kts | 216° |
| 2026-04-21 06:11 | 37.90201 | 23.92416 | 4090 ft | 214 kts | 214° |
| 2026-04-21 06:12 | 37.88912 | 23.91424 | 5200 ft | 219 kts | 210° |
| 2026-04-21 06:12 | 37.87571 | 23.90343 | 6089 ft | 238 kts | 214° |
| 2026-04-21 06:12 | 37.86068 | 23.89298 | 7110 ft | 254 kts | 205° |
| 2026-04-21 06:12 | 37.84401 | 23.88363 | 8143 ft | 269 kts | 203° |
| 2026-04-21 06:13 | 37.82637 | 23.87399 | 9188 ft | 282 kts | 204° |
| 2026-04-21 06:13 | 37.80837 | 23.86383 | 10307 ft | 289 kts | 204° |
| 2026-04-21 06:13 | 37.78959 | 23.85278 | 11220 ft | 306 kts | 204° |
| 2026-04-21 06:13 | 37.76832 | 23.84673 | 11992 ft | 325 kts | 176° |
| 2026-04-21 06:14 | 37.74631 | 23.85533 | 12760 ft | 343 kts | 147° |
| 2026-04-21 06:14 | 37.72936 | 23.87715 | 13536 ft | 359 kts | 122° |
| 2026-04-21 06:14 | 37.71712 | 23.90548 | 14310 ft | 374 kts | 116° |
| 2026-04-21 06:14 | 37.70591 | 23.93584 | 15077 ft | 388 kts | 114° |
| 2026-04-21 06:15 | 37.69430 | 23.96689 | 15873 ft | 398 kts | 116° |
| 2026-04-21 06:15 | 37.68201 | 23.99850 | 16827 ft | 403 kts | 116° |
| 2026-04-21 06:15 | 37.66929 | 24.03048 | 17734 ft | 409 kts | 117° |
| 2026-04-21 06:15 | 37.65638 | 24.06242 | 18424 ft | 420 kts | 117° |
| 2026-04-21 06:16 | 37.64289 | 24.09537 | 19215 ft | 425 kts | 117° |
| 2026-04-21 06:16 | 37.62907 | 24.12877 | 20003 ft | 431 kts | 117° |
| 2026-04-21 06:16 | 37.61502 | 24.16248 | 20762 ft | 436 kts | 118° |
| 2026-04-21 06:16 | 37.60074 | 24.19653 | 21486 ft | 441 kts | 118° |
| 2026-04-21 06:17 | 37.58623 | 24.23094 | 22187 ft | 446 kts | 118° |
| 2026-04-21 06:17 | 37.57226 | 24.26531 | 22597 ft | 446 kts | 112° |
| 2026-04-21 06:17 | 37.56593 | 24.30383 | 22846 ft | 456 kts | 91° |
| 2026-04-21 06:17 | 37.57125 | 24.34338 | 22948 ft | 462 kts | 69° |
| 2026-04-21 06:18 | 37.58754 | 24.37804 | 22984 ft | 462 kts | 49° |
| 2026-04-21 06:18 | 37.61255 | 24.40307 | 23003 ft | 459 kts | 27° |
| 2026-04-21 06:18 | 37.64291 | 24.41503 | 23010 ft | 460 kts | 7° |
| 2026-04-21 06:18 | 37.67492 | 24.41674 | 23004 ft | 461 kts | 0° |
| 2026-04-21 06:19 | 37.70657 | 24.41714 | 23001 ft | 460 kts | 1° |
| 2026-04-21 06:19 | 37.73853 | 24.41863 | 23001 ft | 459 kts | 3° |
| 2026-04-21 06:19 | 37.77048 | 24.42205 | 23001 ft | 460 kts | 6° |
| 2026-04-21 06:19 | 37.80218 | 24.42752 | 23000 ft | 460 kts | 9° |
| 2026-04-21 06:20 | 37.83377 | 24.43486 | 22996 ft | 460 kts | 12° |
| 2026-04-21 06:20 | 37.86499 | 24.44375 | 22996 ft | 459 kts | 13° |
| 2026-04-21 06:20 | 37.89595 | 24.45397 | 22994 ft | 460 kts | 15° |
| 2026-04-21 06:20 | 37.92671 | 24.46532 | 22995 ft | 460 kts | 17° |
| 2026-04-21 06:21 | 37.95685 | 24.47745 | 22997 ft | 460 kts | 18° |
| 2026-04-21 06:21 | 37.98732 | 24.48983 | 22995 ft | 460 kts | 17° |
| 2026-04-21 06:21 | 38.01787 | 24.50195 | 22995 ft | 459 kts | 17° |
| 2026-04-21 06:21 | 38.04840 | 24.51388 | 22996 ft | 460 kts | 17° |
| 2026-04-21 06:22 | 38.07910 | 24.52576 | 22996 ft | 460 kts | 17° |
| 2026-04-21 06:22 | 38.10982 | 24.53757 | 22995 ft | 460 kts | 17° |
| 2026-04-21 06:22 | 38.14054 | 24.54932 | 22997 ft | 459 kts | 17° |
| 2026-04-21 06:22 | 38.17082 | 24.56074 | 22998 ft | 460 kts | 16° |
| 2026-04-21 06:23 | 38.20164 | 24.57226 | 22995 ft | 460 kts | 16° |
| 2026-04-21 06:23 | 38.23247 | 24.58378 | 22991 ft | 460 kts | 16° |
| 2026-04-21 06:23 | 38.26318 | 24.59527 | 22990 ft | 459 kts | 16° |
| 2026-04-21 06:23 | 38.29351 | 24.60663 | 22989 ft | 460 kts | 16° |
| 2026-04-21 06:24 | 38.32433 | 24.61821 | 22989 ft | 460 kts | 16° |
| 2026-04-21 06:24 | 38.35500 | 24.62975 | 22987 ft | 460 kts | 16° |
| 2026-04-21 06:24 | 38.38569 | 24.64135 | 22989 ft | 460 kts | 17° |
| 2026-04-21 06:24 | 38.41638 | 24.65298 | 22989 ft | 460 kts | 17° |
| 2026-04-21 06:25 | 38.44706 | 24.66461 | 22989 ft | 459 kts | 17° |
| 2026-04-21 06:25 | 38.47770 | 24.67626 | 22992 ft | 459 kts | 17° |
| 2026-04-21 06:25 | 38.50801 | 24.68781 | 22986 ft | 460 kts | 17° |
| 2026-04-21 06:25 | 38.53882 | 24.69957 | 22983 ft | 460 kts | 17° |
| 2026-04-21 06:26 | 38.56952 | 24.71130 | 22982 ft | 460 kts | 17° |
| 2026-04-21 06:26 | 38.60017 | 24.72303 | 22980 ft | 459 kts | 17° |
| 2026-04-21 06:26 | 38.63089 | 24.73480 | 22981 ft | 460 kts | 17° |
| 2026-04-21 06:26 | 38.66156 | 24.74657 | 22981 ft | 460 kts | 17° |
| 2026-04-21 06:27 | 38.69185 | 24.75821 | 22981 ft | 460 kts | 17° |
| 2026-04-21 06:27 | 38.72245 | 24.76998 | 22982 ft | 459 kts | 17° |
| 2026-04-21 06:27 | 38.75303 | 24.78178 | 22980 ft | 459 kts | 17° |
| 2026-04-21 06:27 | 38.78372 | 24.79365 | 22976 ft | 460 kts | 17° |
| 2026-04-21 06:28 | 38.81442 | 24.80555 | 22973 ft | 460 kts | 17° |
| 2026-04-21 06:28 | 38.84511 | 24.81737 | 22971 ft | 459 kts | 17° |
| 2026-04-21 06:28 | 38.87577 | 24.82913 | 22967 ft | 459 kts | 17° |
| 2026-04-21 06:28 | 38.90644 | 24.84088 | 22967 ft | 459 kts | 17° |
| 2026-04-21 06:29 | 38.93712 | 24.85264 | 22965 ft | 460 kts | 17° |
| 2026-04-21 06:29 | 38.96781 | 24.86444 | 22964 ft | 460 kts | 17° |
| 2026-04-21 06:29 | 38.99814 | 24.87614 | 22962 ft | 459 kts | 17° |
| 2026-04-21 06:29 | 39.02871 | 24.88797 | 22964 ft | 459 kts | 17° |
| 2026-04-21 06:30 | 39.05938 | 24.89986 | 22965 ft | 460 kts | 16° |
| 2026-04-21 06:30 | 39.09086 | 24.90593 | 22972 ft | 460 kts | 358° |
| 2026-04-21 06:30 | 39.12213 | 24.89770 | 22973 ft | 460 kts | 341° |
| 2026-04-21 06:30 | 39.15191 | 24.88268 | 22966 ft | 460 kts | 337° |
| 2026-04-21 06:31 | 39.18118 | 24.86587 | 22962 ft | 459 kts | 335° |
| 2026-04-21 06:31 | 39.20981 | 24.84854 | 22961 ft | 459 kts | 334° |
| 2026-04-21 06:31 | 39.23861 | 24.83064 | 22954 ft | 460 kts | 334° |
| 2026-04-21 06:31 | 39.26740 | 24.81253 | 22953 ft | 460 kts | 334° |
| 2026-04-21 06:32 | 39.29623 | 24.79431 | 22952 ft | 459 kts | 334° |
| 2026-04-21 06:32 | 39.32499 | 24.77615 | 22953 ft | 459 kts | 334° |
| 2026-04-21 06:32 | 39.35369 | 24.75804 | 22954 ft | 460 kts | 334° |
| 2026-04-21 06:32 | 39.38215 | 24.74013 | 22956 ft | 460 kts | 334° |
| 2026-04-21 06:33 | 39.41101 | 24.72202 | 22950 ft | 460 kts | 334° |
| 2026-04-21 06:33 | 39.43978 | 24.70403 | 22951 ft | 459 kts | 334° |
| 2026-04-21 06:33 | 39.46854 | 24.68608 | 22953 ft | 459 kts | 334° |
| 2026-04-21 06:33 | 39.49737 | 24.66803 | 22954 ft | 460 kts | 334° |
| 2026-04-21 06:34 | 39.52629 | 24.64987 | 22953 ft | 460 kts | 334° |
| 2026-04-21 06:34 | 39.55470 | 24.63200 | 22952 ft | 460 kts | 334° |
| 2026-04-21 06:34 | 39.58352 | 24.61386 | 22951 ft | 459 kts | 334° |
| 2026-04-21 06:34 | 39.61231 | 24.59573 | 22953 ft | 460 kts | 334° |
| 2026-04-21 06:35 | 39.64117 | 24.57755 | 22953 ft | 460 kts | 334° |
| 2026-04-21 06:35 | 39.66996 | 24.55941 | 22953 ft | 460 kts | 334° |
| 2026-04-21 06:35 | 39.69882 | 24.54123 | 22951 ft | 459 kts | 334° |
| 2026-04-21 06:35 | 39.72725 | 24.52330 | 22951 ft | 459 kts | 334° |
| 2026-04-21 06:36 | 39.75607 | 24.50513 | 22956 ft | 460 kts | 334° |
| 2026-04-21 06:36 | 39.78486 | 24.48695 | 22955 ft | 460 kts | 334° |
| 2026-04-21 06:36 | 39.81366 | 24.46876 | 22952 ft | 460 kts | 334° |
| 2026-04-21 06:36 | 39.84243 | 24.45055 | 22953 ft | 459 kts | 334° |
| 2026-04-21 06:37 | 39.87125 | 24.43231 | 22954 ft | 459 kts | 334° |
| 2026-04-21 06:37 | 39.89998 | 24.41412 | 22955 ft | 460 kts | 334° |
| 2026-04-21 06:37 | 39.92846 | 24.39607 | 22952 ft | 460 kts | 334° |
| 2026-04-21 06:37 | 39.95732 | 24.37777 | 22950 ft | 460 kts | 334° |
| 2026-04-21 06:38 | 39.98607 | 24.35952 | 22947 ft | 460 kts | 334° |
| 2026-04-21 06:38 | 40.01492 | 24.34118 | 22946 ft | 459 kts | 334° |
| 2026-04-21 06:38 | 40.04369 | 24.32287 | 22946 ft | 460 kts | 334° |
| 2026-04-21 06:38 | 40.07253 | 24.30450 | 22944 ft | 460 kts | 334° |
| 2026-04-21 06:39 | 40.10130 | 24.28616 | 22944 ft | 460 kts | 334° |
| 2026-04-21 06:39 | 40.12965 | 24.26807 | 22944 ft | 459 kts | 334° |
| 2026-04-21 06:39 | 40.15836 | 24.24975 | 22944 ft | 459 kts | 334° |
| 2026-04-21 06:39 | 40.18717 | 24.23134 | 22945 ft | 460 kts | 334° |
| 2026-04-21 06:40 | 40.21607 | 24.21286 | 22945 ft | 460 kts | 334° |
| 2026-04-21 06:40 | 40.24482 | 24.19444 | 22945 ft | 460 kts | 334° |
| 2026-04-21 06:40 | 40.27355 | 24.17602 | 22943 ft | 459 kts | 334° |
| 2026-04-21 06:40 | 40.30221 | 24.15761 | 22945 ft | 459 kts | 334° |
| 2026-04-21 06:41 | 40.33098 | 24.13913 | 22946 ft | 460 kts | 334° |
| 2026-04-21 06:41 | 40.35934 | 24.12090 | 22945 ft | 460 kts | 334° |
| 2026-04-21 06:41 | 40.38819 | 24.10237 | 22956 ft | 459 kts | 334° |
| 2026-04-21 06:41 | 40.41702 | 24.08381 | 23145 ft | 461 kts | 334° |
| 2026-04-21 06:42 | 40.44603 | 24.06510 | 23554 ft | 464 kts | 334° |
| 2026-04-21 06:42 | 40.47464 | 24.04665 | 23767 ft | 466 kts | 334° |
| 2026-04-21 06:42 | 40.50397 | 24.02771 | 23862 ft | 472 kts | 334° |
| 2026-04-21 06:42 | 40.53355 | 24.00858 | 23900 ft | 472 kts | 334° |
| 2026-04-21 06:43 | 40.55302 | 23.99599 | 23916 ft | 470 kts | 334° |
| 2026-04-21 06:43 | 40.58245 | 23.97709 | 23931 ft | 470 kts | 334° |
| 2026-04-21 06:43 | 40.61196 | 23.95833 | 23932 ft | 471 kts | 334° |
| 2026-04-21 06:43 | 40.65113 | 23.93358 | 23938 ft | 471 kts | 334° |
| 2026-04-21 06:44 | 40.67111 | 23.92099 | 23977 ft | 471 kts | 334° |
| 2026-04-21 06:44 | 40.70071 | 23.90235 | 24311 ft | 472 kts | 334° |
| 2026-04-21 06:44 | 40.73016 | 23.88381 | 24930 ft | 475 kts | 334° |
| 2026-04-21 06:44 | 40.76013 | 23.86492 | 25507 ft | 479 kts | 334° |
| 2026-04-21 06:45 | 40.79034 | 23.84588 | 26054 ft | 482 kts | 334° |
| 2026-04-21 06:45 | 40.82080 | 23.82667 | 26651 ft | 485 kts | 334° |
| 2026-04-21 06:45 | 40.85124 | 23.80746 | 27414 ft | 483 kts | 334° |
| 2026-04-21 06:45 | 40.88108 | 23.78861 | 28174 ft | 480 kts | 334° |
| 2026-04-21 06:46 | 40.91118 | 23.76957 | 28907 ft | 478 kts | 334° |
| 2026-04-21 06:46 | 40.94113 | 23.75060 | 29634 ft | 476 kts | 334° |
| 2026-04-21 06:46 | 40.97102 | 23.73164 | 30337 ft | 474 kts | 334° |
| 2026-04-21 06:46 | 41.00068 | 23.71282 | 31023 ft | 472 kts | 334° |
| 2026-04-21 06:47 | 41.03017 | 23.69408 | 31488 ft | 467 kts | 334° |
| 2026-04-21 06:47 | 41.05943 | 23.67547 | 31748 ft | 468 kts | 334° |
| 2026-04-21 06:47 | 41.08893 | 23.65672 | 31863 ft | 472 kts | 334° |
| 2026-04-21 06:48 | 41.14782 | 23.61915 | 31925 ft | 470 kts | 334° |
| 2026-04-21 06:48 | 41.20668 | 23.58163 | 31947 ft | 469 kts | 334° |
| 2026-04-21 06:48 | 41.23646 | 23.56255 | 31948 ft | 480 kts | 334° |
| 2026-04-21 06:49 | 41.26683 | 23.54306 | 31948 ft | 486 kts | 334° |
| 2026-04-21 06:49 | 41.32737 | 23.50414 | 31948 ft | 480 kts | 334° |
| 2026-04-21 06:50 | 41.38710 | 23.46548 | 31949 ft | 481 kts | 334° |
| 2026-04-21 06:50 | 41.44757 | 23.42650 | 31949 ft | 482 kts | 334° |
| 2026-04-21 06:51 | 41.50777 | 23.38734 | 31950 ft | 480 kts | 334° |
| 2026-04-21 06:51 | 41.56744 | 23.34837 | 31963 ft | 481 kts | 334° |
| 2026-04-21 06:52 | 41.62767 | 23.30894 | 31971 ft | 481 kts | 334° |
| 2026-04-21 06:52 | 41.68775 | 23.26954 | 31970 ft | 480 kts | 334° |
| 2026-04-21 06:53 | 41.74777 | 23.23008 | 31973 ft | 481 kts | 334° |
| 2026-04-21 06:53 | 41.80754 | 23.19073 | 31976 ft | 481 kts | 334° |
| 2026-04-21 06:54 | 41.86756 | 23.15112 | 31981 ft | 480 kts | 334° |
| 2026-04-21 06:54 | 41.92760 | 23.11140 | 31981 ft | 480 kts | 334° |
| 2026-04-21 06:55 | 41.98734 | 23.07181 | 31984 ft | 481 kts | 334° |
| 2026-04-21 06:55 | 42.04738 | 23.03196 | 31996 ft | 480 kts | 334° |
| 2026-04-21 06:56 | 42.10731 | 22.99207 | 31998 ft | 480 kts | 334° |
| 2026-04-21 06:56 | 42.16703 | 22.95224 | 31999 ft | 481 kts | 334° |
| 2026-04-21 06:57 | 42.22699 | 22.91218 | 31990 ft | 480 kts | 333° |
| 2026-04-21 06:57 | 42.28693 | 22.87204 | 31999 ft | 480 kts | 333° |
| 2026-04-21 06:58 | 42.34654 | 22.83204 | 31998 ft | 481 kts | 333° |
| 2026-04-21 06:58 | 42.40644 | 22.79175 | 31999 ft | 480 kts | 333° |
| 2026-04-21 06:59 | 42.46631 | 22.75140 | 32000 ft | 480 kts | 333° |
| 2026-04-21 06:59 | 42.52635 | 22.71086 | 32004 ft | 481 kts | 333° |
| 2026-04-21 07:00 | 42.58628 | 22.67028 | 32008 ft | 480 kts | 333° |
| 2026-04-21 07:00 | 42.64577 | 22.62990 | 32008 ft | 480 kts | 333° |
| 2026-04-21 07:01 | 42.70559 | 22.58924 | 32010 ft | 481 kts | 333° |
| 2026-04-21 07:01 | 42.79555 | 22.52788 | 32013 ft | 480 kts | 333° |
| 2026-04-21 07:02 | 42.85364 | 22.48398 | 32017 ft | 481 kts | 328° |
| 2026-04-21 07:02 | 42.91038 | 22.43531 | 32018 ft | 481 kts | 327° |
| 2026-04-21 07:03 | 42.96667 | 22.38567 | 32024 ft | 480 kts | 327° |
| 2026-04-21 07:03 | 43.02249 | 22.33594 | 32027 ft | 481 kts | 327° |
| 2026-04-21 07:04 | 43.07853 | 22.28579 | 32034 ft | 481 kts | 327° |
| 2026-04-21 07:04 | 43.13457 | 22.23551 | 32034 ft | 481 kts | 327° |
| 2026-04-21 07:05 | 43.19025 | 22.18538 | 32036 ft | 480 kts | 327° |
| 2026-04-21 07:05 | 43.24615 | 22.13494 | 32042 ft | 481 kts | 327° |
| 2026-04-21 07:06 | 43.30190 | 22.08454 | 32042 ft | 481 kts | 327° |
| 2026-04-21 07:06 | 43.35777 | 22.03390 | 32045 ft | 480 kts | 326° |
| 2026-04-21 07:07 | 43.41334 | 21.98343 | 32048 ft | 481 kts | 326° |
| 2026-04-21 07:07 | 43.46921 | 21.93254 | 32044 ft | 481 kts | 326° |
| 2026-04-21 07:08 | 43.52495 | 21.88165 | 32043 ft | 481 kts | 326° |
| 2026-04-21 07:08 | 43.58081 | 21.83058 | 32041 ft | 481 kts | 326° |
| 2026-04-21 07:09 | 43.63665 | 21.77940 | 32048 ft | 481 kts | 326° |
| 2026-04-21 07:09 | 43.69205 | 21.72850 | 32044 ft | 480 kts | 326° |
| 2026-04-21 07:10 | 43.74779 | 21.67716 | 32043 ft | 481 kts | 326° |
| 2026-04-21 07:10 | 43.80363 | 21.62561 | 32044 ft | 481 kts | 326° |
| 2026-04-21 07:11 | 43.85898 | 21.57437 | 32038 ft | 481 kts | 326° |
| 2026-04-21 07:11 | 43.91460 | 21.52277 | 32033 ft | 481 kts | 326° |
| 2026-04-21 07:12 | 43.97037 | 21.47089 | 32034 ft | 482 kts | 326° |
| 2026-04-21 07:12 | 44.02537 | 21.41849 | 32037 ft | 481 kts | 325° |
| 2026-04-21 07:13 | 44.08024 | 21.36523 | 32037 ft | 481 kts | 325° |
| 2026-04-21 07:13 | 44.13521 | 21.31151 | 32044 ft | 482 kts | 324° |
| 2026-04-21 07:14 | 44.18993 | 21.25782 | 32046 ft | 481 kts | 324° |
| 2026-04-21 07:14 | 44.24436 | 21.20428 | 32044 ft | 481 kts | 324° |
| 2026-04-21 07:15 | 44.29914 | 21.15028 | 32044 ft | 482 kts | 324° |
| 2026-04-21 07:15 | 44.35363 | 21.09639 | 32042 ft | 481 kts | 324° |
| 2026-04-21 07:16 | 44.40842 | 21.04209 | 32054 ft | 481 kts | 324° |
| 2026-04-21 07:16 | 44.46277 | 20.98809 | 32039 ft | 482 kts | 324° |
| 2026-04-21 07:17 | 44.51744 | 20.93367 | 32036 ft | 481 kts | 324° |
| 2026-04-21 07:17 | 44.57207 | 20.87915 | 32037 ft | 481 kts | 324° |
| 2026-04-21 07:18 | 44.62640 | 20.82479 | 32035 ft | 482 kts | 324° |
| 2026-04-21 07:18 | 44.68095 | 20.77009 | 32043 ft | 481 kts | 324° |
| 2026-04-21 07:19 | 44.73556 | 20.71524 | 32043 ft | 482 kts | 324° |
| 2026-04-21 07:19 | 44.78987 | 20.66055 | 32044 ft | 482 kts | 324° |
| 2026-04-21 07:20 | 44.84447 | 20.60539 | 32044 ft | 481 kts | 324° |
| 2026-04-21 07:20 | 44.89864 | 20.55054 | 32043 ft | 482 kts | 324° |
| 2026-04-21 07:21 | 44.95314 | 20.49526 | 32045 ft | 482 kts | 324° |
| 2026-04-21 07:21 | 45.00773 | 20.43975 | 32047 ft | 482 kts | 324° |
| 2026-04-21 07:22 | 45.06211 | 20.38431 | 32049 ft | 482 kts | 324° |
| 2026-04-21 07:22 | 45.11634 | 20.32888 | 32044 ft | 482 kts | 324° |
| 2026-04-21 07:23 | 45.17078 | 20.27312 | 32044 ft | 482 kts | 324° |
| 2026-04-21 07:23 | 45.22475 | 20.21769 | 32043 ft | 482 kts | 324° |
| 2026-04-21 07:24 | 45.27912 | 20.16172 | 32043 ft | 483 kts | 324° |
| 2026-04-21 07:24 | 45.33357 | 20.10551 | 32043 ft | 482 kts | 324° |
| 2026-04-21 07:25 | 45.38750 | 20.04970 | 32043 ft | 482 kts | 324° |
| 2026-04-21 07:25 | 45.44192 | 19.99330 | 32039 ft | 483 kts | 324° |
| 2026-04-21 07:26 | 45.49617 | 19.93690 | 32044 ft | 482 kts | 324° |
| 2026-04-21 07:26 | 45.55016 | 19.88065 | 32039 ft | 483 kts | 324° |
| 2026-04-21 07:27 | 45.60443 | 19.82398 | 32036 ft | 482 kts | 323° |
| 2026-04-21 07:27 | 45.65857 | 19.76726 | 32037 ft | 482 kts | 323° |
| 2026-04-21 07:28 | 45.71251 | 19.71064 | 32042 ft | 483 kts | 323° |
| 2026-04-21 07:28 | 45.76673 | 19.65359 | 32048 ft | 482 kts | 323° |
| 2026-04-21 07:29 | 45.82049 | 19.59682 | 32054 ft | 483 kts | 323° |
| 2026-04-21 07:29 | 45.87463 | 19.53957 | 32046 ft | 483 kts | 323° |
| 2026-04-21 07:30 | 45.92870 | 19.48223 | 32047 ft | 482 kts | 323° |
| 2026-04-21 07:30 | 45.98244 | 19.42506 | 32049 ft | 483 kts | 323° |
| 2026-04-21 07:31 | 46.03640 | 19.36698 | 32048 ft | 483 kts | 322° |
| 2026-04-21 07:31 | 46.08941 | 19.30749 | 32040 ft | 483 kts | 322° |
| 2026-04-21 07:32 | 46.14198 | 19.24742 | 32036 ft | 484 kts | 321° |
| 2026-04-21 07:32 | 46.19472 | 19.18681 | 32036 ft | 483 kts | 321° |
| 2026-04-21 07:33 | 46.24694 | 19.12659 | 32037 ft | 484 kts | 321° |
| 2026-04-21 07:33 | 46.29074 | 19.07594 | 32035 ft | 484 kts | 321° |
| 2026-04-21 07:34 | 46.34333 | 19.01497 | 32037 ft | 483 kts | 321° |
| 2026-04-21 07:34 | 46.39557 | 18.95427 | 32043 ft | 484 kts | 321° |
| 2026-04-21 07:35 | 46.44818 | 18.89300 | 32046 ft | 484 kts | 321° |
| 2026-04-21 07:35 | 46.50075 | 18.83158 | 32049 ft | 483 kts | 321° |
| 2026-04-21 07:36 | 46.55280 | 18.77058 | 32051 ft | 484 kts | 321° |
| 2026-04-21 07:36 | 46.60524 | 18.70897 | 32053 ft | 484 kts | 321° |
| 2026-04-21 07:37 | 46.65759 | 18.64732 | 32053 ft | 483 kts | 321° |
| 2026-04-21 07:37 | 46.70963 | 18.58592 | 32054 ft | 485 kts | 321° |
| 2026-04-21 07:38 | 46.76208 | 18.52383 | 32054 ft | 484 kts | 321° |
| 2026-04-21 07:38 | 46.81438 | 18.46178 | 32057 ft | 483 kts | 321° |
| 2026-04-21 07:39 | 46.86631 | 18.39996 | 32057 ft | 485 kts | 321° |
| 2026-04-21 07:39 | 46.91852 | 18.33765 | 32053 ft | 484 kts | 321° |
| 2026-04-21 07:40 | 46.97072 | 18.27519 | 32053 ft | 484 kts | 321° |
| 2026-04-21 07:40 | 47.02261 | 18.21295 | 32054 ft | 485 kts | 321° |
| 2026-04-21 07:41 | 47.07577 | 18.15196 | 32062 ft | 484 kts | 322° |
| 2026-04-21 07:41 | 47.12961 | 18.09205 | 32063 ft | 484 kts | 323° |
| 2026-04-21 07:42 | 47.18354 | 18.03230 | 32064 ft | 485 kts | 323° |
| 2026-04-21 07:42 | 47.23738 | 17.97262 | 32071 ft | 485 kts | 323° |
| 2026-04-21 07:43 | 47.29127 | 17.91279 | 32075 ft | 485 kts | 323° |
| 2026-04-21 07:43 | 47.34478 | 17.85321 | 32072 ft | 485 kts | 323° |
| 2026-04-21 07:44 | 47.39858 | 17.79312 | 32074 ft | 485 kts | 323° |
| 2026-04-21 07:44 | 47.45253 | 17.73268 | 32073 ft | 486 kts | 323° |
| 2026-04-21 07:45 | 47.50608 | 17.67258 | 32072 ft | 485 kts | 323° |
| 2026-04-21 07:45 | 47.55989 | 17.61200 | 32073 ft | 485 kts | 322° |
| 2026-04-21 07:46 | 47.61373 | 17.55121 | 32072 ft | 486 kts | 322° |
| 2026-04-21 07:46 | 47.66716 | 17.49071 | 32072 ft | 485 kts | 322° |
| 2026-04-21 07:47 | 47.72089 | 17.42975 | 32071 ft | 484 kts | 322° |
| 2026-04-21 07:47 | 47.77453 | 17.36872 | 32071 ft | 486 kts | 322° |
| 2026-04-21 07:48 | 47.82829 | 17.30737 | 32074 ft | 485 kts | 322° |
| 2026-04-21 07:48 | 47.88146 | 17.24651 | 32073 ft | 485 kts | 322° |
| 2026-04-21 07:49 | 47.93492 | 17.18516 | 32077 ft | 486 kts | 322° |
| 2026-04-21 07:49 | 47.98868 | 17.12332 | 32081 ft | 485 kts | 322° |
| 2026-04-21 07:50 | 48.04180 | 17.06203 | 32080 ft | 486 kts | 322° |
| 2026-04-21 07:50 | 48.09541 | 17.00005 | 32081 ft | 486 kts | 322° |
| 2026-04-21 07:51 | 48.14888 | 16.93801 | 32080 ft | 485 kts | 322° |
| 2026-04-21 07:51 | 48.20183 | 16.87641 | 32086 ft | 485 kts | 322° |
| 2026-04-21 07:52 | 48.25523 | 16.81412 | 32090 ft | 486 kts | 322° |
| 2026-04-21 07:52 | 48.30857 | 16.75175 | 32091 ft | 485 kts | 322° |
| 2026-04-21 07:53 | 48.36151 | 16.68969 | 32093 ft | 485 kts | 322° |
| 2026-04-21 07:53 | 48.41478 | 16.62705 | 32091 ft | 486 kts | 322° |
| 2026-04-21 07:54 | 48.46801 | 16.56427 | 32092 ft | 485 kts | 322° |
| 2026-04-21 07:54 | 48.52111 | 16.50148 | 32100 ft | 485 kts | 322° |
| 2026-04-21 07:55 | 48.57431 | 16.43840 | 32100 ft | 486 kts | 322° |
| 2026-04-21 07:55 | 48.62703 | 16.37572 | 32098 ft | 484 kts | 322° |
| 2026-04-21 07:56 | 48.68010 | 16.31241 | 32101 ft | 486 kts | 322° |
| 2026-04-21 07:56 | 48.73290 | 16.24925 | 32100 ft | 485 kts | 321° |
| 2026-04-21 07:57 | 48.76090 | 16.22084 | 32110 ft | 484 kts | 332° |
| 2026-04-21 07:57 | 48.79115 | 16.19835 | 32102 ft | 485 kts | 335° |
| 2026-04-21 07:57 | 48.85315 | 16.15772 | 32102 ft | 485 kts | 337° |
| 2026-04-21 07:58 | 48.91582 | 16.11885 | 32102 ft | 484 kts | 338° |
| 2026-04-21 07:58 | 48.97802 | 16.08090 | 32100 ft | 485 kts | 338° |
| 2026-04-21 07:59 | 49.04082 | 16.04269 | 32099 ft | 485 kts | 338° |
| 2026-04-21 07:59 | 49.10347 | 16.00454 | 32101 ft | 485 kts | 338° |
| 2026-04-21 08:00 | 49.16604 | 15.96636 | 32101 ft | 484 kts | 338° |
| 2026-04-21 08:00 | 49.22826 | 15.92830 | 32100 ft | 485 kts | 338° |
| 2026-04-21 08:01 | 49.29099 | 15.88982 | 32102 ft | 484 kts | 338° |
| 2026-04-21 08:02 | 49.38482 | 15.83200 | 32109 ft | 485 kts | 338° |
| 2026-04-21 08:02 | 49.44661 | 15.79219 | 32112 ft | 484 kts | 334° |
| 2026-04-21 08:03 | 49.50637 | 15.74400 | 32119 ft | 484 kts | 331° |
| 2026-04-21 08:03 | 49.56527 | 15.69344 | 32126 ft | 484 kts | 330° |
| 2026-04-21 08:04 | 49.62347 | 15.64252 | 32131 ft | 483 kts | 330° |
| 2026-04-21 08:04 | 49.68203 | 15.59087 | 32143 ft | 484 kts | 330° |
| 2026-04-21 08:05 | 49.74026 | 15.53930 | 32146 ft | 484 kts | 330° |
| 2026-04-21 08:05 | 49.79869 | 15.48730 | 32149 ft | 483 kts | 330° |
| 2026-04-21 08:06 | 49.85709 | 15.43515 | 32152 ft | 484 kts | 330° |
| 2026-04-21 08:06 | 49.91524 | 15.38309 | 32156 ft | 484 kts | 330° |
| 2026-04-21 08:07 | 49.97350 | 15.33076 | 32155 ft | 484 kts | 330° |
| 2026-04-21 08:07 | 50.03183 | 15.27819 | 32156 ft | 483 kts | 330° |
| 2026-04-21 08:08 | 50.09014 | 15.22551 | 32156 ft | 484 kts | 330° |
| 2026-04-21 08:08 | 50.14824 | 15.17288 | 32157 ft | 482 kts | 329° |
| 2026-04-21 08:09 | 50.20632 | 15.12008 | 32164 ft | 484 kts | 329° |
| 2026-04-21 08:09 | 50.26408 | 15.06741 | 32160 ft | 483 kts | 329° |
| 2026-04-21 08:10 | 50.32210 | 15.01437 | 32166 ft | 482 kts | 329° |
| 2026-04-21 08:10 | 50.38024 | 14.96101 | 32165 ft | 483 kts | 329° |
| 2026-04-21 08:11 | 50.43796 | 14.90786 | 32167 ft | 483 kts | 329° |
| 2026-04-21 08:11 | 50.49489 | 14.85147 | 32167 ft | 482 kts | 326° |
| 2026-04-21 08:12 | 50.55024 | 14.79188 | 32173 ft | 483 kts | 325° |
| 2026-04-21 08:12 | 50.60534 | 14.73116 | 32173 ft | 483 kts | 325° |
| 2026-04-21 08:13 | 50.65987 | 14.67054 | 32180 ft | 482 kts | 324° |
| 2026-04-21 08:13 | 50.71465 | 14.60939 | 32187 ft | 483 kts | 324° |
| 2026-04-21 08:14 | 50.76958 | 14.54780 | 32191 ft | 483 kts | 324° |
| 2026-04-21 08:14 | 50.82427 | 14.48633 | 32196 ft | 482 kts | 324° |
| 2026-04-21 08:15 | 50.87898 | 14.42458 | 32196 ft | 483 kts | 324° |
| 2026-04-21 08:15 | 50.93235 | 14.36092 | 32213 ft | 482 kts | 321° |
| 2026-04-21 08:16 | 50.98401 | 14.29278 | 32218 ft | 482 kts | 319° |
| 2026-04-21 08:16 | 51.03459 | 14.22335 | 32219 ft | 482 kts | 319° |
| 2026-04-21 08:17 | 51.08523 | 14.15321 | 32230 ft | 482 kts | 319° |
| 2026-04-21 08:17 | 51.13598 | 14.08289 | 32230 ft | 482 kts | 319° |
| 2026-04-21 08:18 | 51.18624 | 14.01306 | 32235 ft | 481 kts | 319° |
| 2026-04-21 08:18 | 51.23670 | 13.94272 | 32238 ft | 482 kts | 319° |
| 2026-04-21 08:19 | 51.28720 | 13.87220 | 32238 ft | 482 kts | 319° |
| 2026-04-21 08:19 | 51.33738 | 13.80202 | 32238 ft | 481 kts | 319° |
| 2026-04-21 08:20 | 51.38773 | 13.73129 | 32239 ft | 482 kts | 319° |
| 2026-04-21 08:20 | 51.42961 | 13.67233 | 32246 ft | 482 kts | 319° |
| 2026-04-21 08:21 | 51.48002 | 13.60115 | 32247 ft | 481 kts | 319° |
| 2026-04-21 08:21 | 51.53027 | 13.52998 | 32252 ft | 482 kts | 318° |
| 2026-04-21 08:22 | 51.58017 | 13.45901 | 32256 ft | 482 kts | 318° |
| 2026-04-21 08:22 | 51.63035 | 13.38741 | 32261 ft | 481 kts | 318° |
| 2026-04-21 08:23 | 51.68042 | 13.31575 | 32266 ft | 482 kts | 318° |
| 2026-04-21 08:23 | 51.73049 | 13.24384 | 32266 ft | 482 kts | 318° |
| 2026-04-21 08:24 | 51.78050 | 13.17175 | 32266 ft | 481 kts | 318° |
| 2026-04-21 08:24 | 51.83016 | 13.10009 | 32266 ft | 481 kts | 318° |
| 2026-04-21 08:25 | 51.88022 | 13.02768 | 32270 ft | 481 kts | 318° |
| 2026-04-21 08:25 | 51.93013 | 12.95525 | 32266 ft | 482 kts | 318° |
| 2026-04-21 08:26 | 51.97996 | 12.88269 | 32268 ft | 481 kts | 318° |
| 2026-04-21 08:26 | 52.02949 | 12.81033 | 32273 ft | 481 kts | 318° |
| 2026-04-21 08:27 | 52.07920 | 12.73742 | 32275 ft | 481 kts | 318° |
| 2026-04-21 08:27 | 52.12895 | 12.66425 | 32274 ft | 480 kts | 318° |
| 2026-04-21 08:28 | 52.17821 | 12.59149 | 32278 ft | 481 kts | 317° |
| 2026-04-21 08:28 | 52.22783 | 12.51812 | 32274 ft | 481 kts | 317° |
| 2026-04-21 08:29 | 52.27738 | 12.44452 | 32278 ft | 480 kts | 317° |
| 2026-04-21 08:29 | 52.32681 | 12.37084 | 32282 ft | 481 kts | 317° |
| 2026-04-21 08:30 | 52.37594 | 12.29740 | 32283 ft | 481 kts | 317° |
| 2026-04-21 08:30 | 52.42532 | 12.22334 | 32283 ft | 480 kts | 317° |
| 2026-04-21 08:31 | 52.47467 | 12.14903 | 32295 ft | 481 kts | 317° |
| 2026-04-21 08:31 | 52.52380 | 12.07494 | 32302 ft | 481 kts | 317° |
| 2026-04-21 08:32 | 52.57312 | 12.00020 | 32302 ft | 480 kts | 317° |
| 2026-04-21 08:32 | 52.62228 | 11.92677 | 32311 ft | 480 kts | 320° |
| 2026-04-21 08:33 | 52.67423 | 11.85736 | 32312 ft | 481 kts | 322° |
| 2026-04-21 08:33 | 52.72698 | 11.78966 | 32281 ft | 478 kts | 322° |
| 2026-04-21 08:33 | 52.75308 | 11.75643 | 32088 ft | 468 kts | 322° |
| 2026-04-21 08:34 | 52.77891 | 11.72360 | 31005 ft | 466 kts | 322° |
| 2026-04-21 08:34 | 52.80456 | 11.69099 | 29930 ft | 462 kts | 322° |
| 2026-04-21 08:34 | 52.82968 | 11.65902 | 29225 ft | 448 kts | 322° |
| 2026-04-21 08:34 | 52.85375 | 11.62836 | 28553 ft | 435 kts | 322° |
| 2026-04-21 08:35 | 52.87743 | 11.59811 | 27876 ft | 423 kts | 322° |
| 2026-04-21 08:35 | 52.90047 | 11.56860 | 27234 ft | 413 kts | 322° |
| 2026-04-21 08:35 | 52.92310 | 11.53959 | 26258 ft | 410 kts | 322° |
| 2026-04-21 08:35 | 52.94561 | 11.51072 | 25351 ft | 407 kts | 322° |
| 2026-04-21 08:36 | 52.96785 | 11.48216 | 24522 ft | 401 kts | 322° |
| 2026-04-21 08:36 | 52.98958 | 11.45422 | 23701 ft | 396 kts | 322° |
| 2026-04-21 08:36 | 53.01126 | 11.42631 | 22868 ft | 391 kts | 322° |
| 2026-04-21 08:36 | 53.03273 | 11.39861 | 22044 ft | 386 kts | 322° |
| 2026-04-21 08:37 | 53.05362 | 11.37167 | 21241 ft | 381 kts | 322° |
| 2026-04-21 08:37 | 53.07444 | 11.34482 | 20436 ft | 376 kts | 322° |
| 2026-04-21 08:37 | 53.09504 | 11.31851 | 19641 ft | 371 kts | 323° |
| 2026-04-21 08:37 | 53.11572 | 11.29326 | 18845 ft | 366 kts | 324° |
| 2026-04-21 08:38 | 53.13638 | 11.26866 | 18050 ft | 362 kts | 324° |
| 2026-04-21 08:38 | 53.15661 | 11.24486 | 17282 ft | 358 kts | 324° |
| 2026-04-21 08:38 | 53.17690 | 11.22116 | 16514 ft | 354 kts | 325° |
| 2026-04-21 08:38 | 53.19699 | 11.19779 | 15736 ft | 350 kts | 325° |
| 2026-04-21 08:39 | 53.21688 | 11.17468 | 14974 ft | 346 kts | 325° |
| 2026-04-21 08:39 | 53.23663 | 11.15179 | 14208 ft | 342 kts | 325° |
| 2026-04-21 08:39 | 53.25591 | 11.12944 | 13446 ft | 338 kts | 325° |
| 2026-04-21 08:39 | 53.27514 | 11.10711 | 12702 ft | 335 kts | 325° |
| 2026-04-21 08:40 | 53.29421 | 11.08496 | 11942 ft | 331 kts | 325° |
| 2026-04-21 08:40 | 53.31308 | 11.06301 | 11194 ft | 327 kts | 325° |
| 2026-04-21 08:40 | 53.33193 | 11.04108 | 10792 ft | 334 kts | 325° |
| 2026-04-21 08:40 | 53.35076 | 11.01915 | 10548 ft | 326 kts | 325° |
| 2026-04-21 08:41 | 53.36940 | 10.99741 | 10443 ft | 326 kts | 325° |
| 2026-04-21 08:41 | 53.38807 | 10.97564 | 10397 ft | 326 kts | 325° |
| 2026-04-21 08:41 | 53.40671 | 10.95387 | 10381 ft | 326 kts | 325° |
| 2026-04-21 08:41 | 53.42533 | 10.93211 | 10367 ft | 326 kts | 325° |
| 2026-04-21 08:42 | 53.44405 | 10.91019 | 10363 ft | 326 kts | 325° |
| 2026-04-21 08:42 | 53.46239 | 10.88871 | 10365 ft | 326 kts | 325° |
| 2026-04-21 08:42 | 53.48102 | 10.86685 | 10367 ft | 327 kts | 325° |
| 2026-04-21 08:42 | 53.49966 | 10.84495 | 10368 ft | 326 kts | 325° |
| 2026-04-21 08:43 | 53.51826 | 10.82306 | 10369 ft | 326 kts | 325° |
| 2026-04-21 08:43 | 53.53684 | 10.80120 | 10368 ft | 327 kts | 325° |
| 2026-04-21 08:43 | 53.55546 | 10.77924 | 10372 ft | 326 kts | 325° |
| 2026-04-21 08:43 | 53.57407 | 10.75727 | 10367 ft | 326 kts | 325° |
| 2026-04-21 08:44 | 53.59250 | 10.73548 | 10370 ft | 326 kts | 325° |
| 2026-04-21 08:44 | 53.61088 | 10.71313 | 10368 ft | 326 kts | 319° |
| 2026-04-21 08:44 | 53.62382 | 10.68216 | 10388 ft | 326 kts | 289° |
| 2026-04-21 08:44 | 53.62618 | 10.64446 | 10396 ft | 327 kts | 265° |
| 2026-04-21 08:45 | 53.62276 | 10.60655 | 10387 ft | 326 kts | 258° |
| 2026-04-21 08:45 | 53.61782 | 10.56916 | 10380 ft | 326 kts | 256° |
| 2026-04-21 08:45 | 53.61218 | 10.53259 | 10378 ft | 327 kts | 255° |
| 2026-04-21 08:45 | 53.60599 | 10.49578 | 10376 ft | 326 kts | 253° |
| 2026-04-21 08:46 | 53.59949 | 10.45910 | 10373 ft | 326 kts | 253° |
| 2026-04-21 08:46 | 53.59276 | 10.42241 | 10376 ft | 326 kts | 252° |
| 2026-04-21 08:46 | 53.58601 | 10.38633 | 10375 ft | 327 kts | 252° |
| 2026-04-21 08:46 | 53.57913 | 10.34997 | 10375 ft | 326 kts | 252° |
| 2026-04-21 08:47 | 53.57219 | 10.31363 | 10376 ft | 326 kts | 252° |
| 2026-04-21 08:47 | 53.56519 | 10.27716 | 10376 ft | 327 kts | 252° |
| 2026-04-21 08:47 | 53.55814 | 10.24063 | 10377 ft | 326 kts | 252° |
| 2026-04-21 08:47 | 53.55113 | 10.20433 | 10375 ft | 326 kts | 252° |
| 2026-04-21 08:48 | 53.54419 | 10.16849 | 10373 ft | 327 kts | 252° |
| 2026-04-21 08:48 | 53.53714 | 10.13208 | 10372 ft | 326 kts | 252° |
| 2026-04-21 08:48 | 53.53011 | 10.09578 | 10374 ft | 326 kts | 252° |
| 2026-04-21 08:48 | 53.52306 | 10.05950 | 10377 ft | 327 kts | 252° |
| 2026-04-21 08:49 | 53.51601 | 10.02321 | 10376 ft | 326 kts | 252° |
| 2026-04-21 08:49 | 53.50810 | 9.98739 | 10377 ft | 326 kts | 246° |
| 2026-04-21 08:49 | 53.49828 | 9.95357 | 10379 ft | 326 kts | 241° |
| 2026-04-21 08:49 | 53.48670 | 9.92110 | 10324 ft | 317 kts | 237° |
| 2026-04-21 08:50 | 53.47429 | 9.89180 | 10170 ft | 299 kts | 232° |
| 2026-04-21 08:50 | 53.46171 | 9.86504 | 9923 ft | 285 kts | 231° |
| 2026-04-21 08:50 | 53.44932 | 9.84004 | 9678 ft | 272 kts | 230° |
| 2026-04-21 08:50 | 53.43726 | 9.81636 | 9388 ft | 263 kts | 229° |
| 2026-04-21 08:51 | 53.42536 | 9.79315 | 8950 ft | 261 kts | 229° |
| 2026-04-21 08:51 | 53.41342 | 9.76966 | 8631 ft | 264 kts | 230° |
| 2026-04-21 08:51 | 53.40168 | 9.74641 | 8490 ft | 258 kts | 230° |
| 2026-04-21 08:51 | 53.39028 | 9.72365 | 8432 ft | 259 kts | 230° |
| 2026-04-21 08:52 | 53.37867 | 9.70046 | 8356 ft | 259 kts | 230° |
| 2026-04-21 08:52 | 53.36732 | 9.67778 | 8284 ft | 247 kts | 230° |
| 2026-04-21 08:52 | 53.35646 | 9.65612 | 8043 ft | 239 kts | 230° |
| 2026-04-21 08:52 | 53.34595 | 9.63512 | 7621 ft | 233 kts | 230° |
| 2026-04-21 08:53 | 53.33566 | 9.61459 | 7238 ft | 227 kts | 230° |
| 2026-04-21 08:53 | 53.32575 | 9.59485 | 6881 ft | 221 kts | 230° |
| 2026-04-21 08:53 | 53.31596 | 9.57542 | 6530 ft | 215 kts | 230° |
| 2026-04-21 08:53 | 53.30652 | 9.55665 | 6228 ft | 203 kts | 230° |
| 2026-04-21 08:54 | 53.29772 | 9.53912 | 5864 ft | 193 kts | 231° |
| 2026-04-21 08:54 | 53.29278 | 9.51876 | 5299 ft | 194 kts | 272° |
| 2026-04-21 08:54 | 53.29844 | 9.49907 | 4836 ft | 194 kts | 315° |
| 2026-04-21 08:54 | 53.30875 | 9.48416 | 4574 ft | 198 kts | 322° |
| 2026-04-21 08:55 | 53.31972 | 9.47014 | 4460 ft | 199 kts | 323° |
| 2026-04-21 08:55 | 53.33083 | 9.45625 | 4413 ft | 198 kts | 323° |
| 2026-04-21 08:55 | 53.34207 | 9.44277 | 4350 ft | 202 kts | 332° |
| 2026-04-21 08:55 | 53.35569 | 9.44113 | 4167 ft | 199 kts | 21° |
| 2026-04-21 08:56 | 53.36646 | 9.45569 | 4081 ft | 201 kts | 48° |
| 2026-04-21 08:56 | 53.37534 | 9.47366 | 4037 ft | 199 kts | 52° |
| 2026-04-21 08:56 | 53.38375 | 9.49218 | 4019 ft | 200 kts | 53° |
| 2026-04-21 08:56 | 53.39228 | 9.51038 | 4001 ft | 200 kts | 51° |
| 2026-04-21 08:57 | 53.40103 | 9.52850 | 4010 ft | 200 kts | 51° |
| 2026-04-21 08:57 | 53.40983 | 9.54662 | 4008 ft | 201 kts | 51° |
| 2026-04-21 08:57 | 53.41875 | 9.56474 | 4010 ft | 200 kts | 50° |
| 2026-04-21 08:57 | 53.42762 | 9.58245 | 4008 ft | 200 kts | 50° |
| 2026-04-21 08:58 | 53.43665 | 9.60034 | 4004 ft | 201 kts | 50° |
| 2026-04-21 08:58 | 53.44562 | 9.61810 | 3847 ft | 201 kts | 50° |
| 2026-04-21 08:58 | 53.45463 | 9.63589 | 3653 ft | 199 kts | 50° |
| 2026-04-21 08:58 | 53.46360 | 9.65363 | 3455 ft | 199 kts | 50° |
| 2026-04-21 08:59 | 53.47255 | 9.67132 | 3254 ft | 197 kts | 50° |
| 2026-04-21 08:59 | 53.48141 | 9.68892 | 3119 ft | 196 kts | 50° |
| 2026-04-21 08:59 | 53.49016 | 9.70645 | 3054 ft | 192 kts | 50° |
| 2026-04-21 08:59 | 53.49810 | 9.72238 | 2945 ft | 171 kts | 50° |
| 2026-04-21 09:00 | 53.50556 | 9.73736 | 2812 ft | 164 kts | 50° |
| 2026-04-21 09:00 | 53.51275 | 9.75178 | 2665 ft | 162 kts | 50° |
| 2026-04-21 09:00 | 53.52002 | 9.76630 | 2530 ft | 161 kts | 50° |
| 2026-04-21 09:00 | 53.52722 | 9.78075 | 2392 ft | 162 kts | 50° |
| 2026-04-21 09:01 | 53.53436 | 9.79520 | 2337 ft | 160 kts | 50° |
| 2026-04-21 09:01 | 53.54143 | 9.80947 | 2270 ft | 161 kts | 49° |
| 2026-04-21 09:01 | 53.54869 | 9.82381 | 2224 ft | 161 kts | 49° |
| 2026-04-21 09:01 | 53.55654 | 9.83920 | 2050 ft | 183 kts | 49° |
| 2026-04-21 09:02 | 53.56377 | 9.85406 | 2058 ft | 142 kts | 51° |
| 2026-04-21 09:02 | 53.57009 | 9.86698 | 1737 ft | 142 kts | 47° |
| 2026-04-21 09:02 | 53.57679 | 9.87966 | 1420 ft | 150 kts | 49° |
| 2026-04-21 09:03 | 53.58943 | 9.90573 | 936 ft | 143 kts | 49° |
| 2026-04-21 09:03 | 53.59607 | 9.91887 | 752 ft | 143 kts | 49° |
| 2026-04-21 09:03 | 53.60263 | 9.93210 | 542 ft | 150 kts | 50° |
| 2026-04-21 09:03 | 53.60939 | 9.94585 | 327 ft | 154 kts | 50° |
| 2026-04-21 09:04 | 53.61622 | 9.95964 | 147 ft | 160 kts | 49° |
| 2026-04-21 09:04 | 53.62315 | 9.97367 | 50 ft | 161 kts | 50° |
| 2026-04-21 09:04 | 53.63057 | 9.98872 | 48 ft | 173 kts | 50° |
| 2026-04-21 09:04 | 53.63726 | 10.00196 | 110 ft | 133 kts | 50° |
| 2026-04-21 09:05 | 53.64292 | 10.01377 | 425 ft | 138 kts | 54° |
| 2026-04-21 09:05 | 53.64891 | 10.02978 | 593 ft | 189 kts | 62° |
| 2026-04-21 09:05 | 53.65437 | 10.04958 | 622 ft | 186 kts | 54° |
| 2026-04-21 09:05 | 53.66588 | 10.06145 | 1097 ft | 209 kts | 9° |
| 2026-04-21 09:06 | 53.68011 | 10.05535 | 1730 ft | 212 kts | 325° |
| 2026-04-21 09:06 | 53.68660 | 10.03717 | 2256 ft | 167 kts | 272° |
| 2026-04-21 09:06 | 53.68311 | 10.02077 | 2221 ft | 152 kts | 219° |
| 2026-04-21 09:06 | 53.67339 | 10.01762 | 1874 ft | 159 kts | 167° |
| 2026-04-21 09:07 | 53.66190 | 10.02471 | 1375 ft | 180 kts | 152° |
| 2026-04-21 09:07 | 53.65000 | 10.02933 | 1179 ft | 176 kts | 196° |
| 2026-04-21 09:07 | 53.64033 | 10.01638 | 1207 ft | 187 kts | 232° |
| 2026-04-21 09:07 | 53.62981 | 9.99988 | 1329 ft | 222 kts | 222° |
| 2026-04-21 09:08 | 53.61571 | 9.98705 | 1536 ft | 238 kts | 204° |
| 2026-04-21 09:08 | 53.59887 | 9.97829 | 1882 ft | 270 kts | 199° |
| 2026-04-21 09:08 | 53.58014 | 9.96954 | 2182 ft | 272 kts | 201° |
| 2026-04-21 09:08 | 53.56430 | 9.95527 | 2341 ft | 261 kts | 232° |
| 2026-04-21 09:09 | 53.55069 | 9.93497 | 2190 ft | 260 kts | 213° |
| 2026-04-21 09:09 | 53.53454 | 9.92247 | 2237 ft | 257 kts | 222° |
| 2026-04-21 09:09 | 53.52207 | 9.90096 | 2323 ft | 258 kts | 246° |
| 2026-04-21 09:09 | 53.51573 | 9.87293 | 2311 ft | 259 kts | 261° |
| 2026-04-21 09:10 | 53.51413 | 9.84350 | 2377 ft | 255 kts | 291° |
| 2026-04-21 09:10 | 53.51918 | 9.82558 | 2401 ft | 258 kts | 311° |
| 2026-04-21 09:10 | 53.53403 | 9.79471 | 2310 ft | 254 kts | 326° |
| 2026-04-21 09:10 | 53.54924 | 9.78055 | 2374 ft | 242 kts | 359° |
| 2026-04-21 09:11 | 53.55987 | 9.78185 | 2469 ft | 216 kts | 30° |
| 2026-04-21 09:11 | 53.57005 | 9.79689 | 2538 ft | 181 kts | 64° |
| 2026-04-21 09:11 | 53.57587 | 9.81387 | 2424 ft | 158 kts | 70° |
| 2026-04-21 09:11 | 53.57860 | 9.83223 | 2196 ft | 169 kts | 83° |
| 2026-04-21 09:12 | 53.58024 | 9.85246 | 2082 ft | 167 kts | 89° |
| 2026-04-21 09:12 | 53.58084 | 9.87015 | 1906 ft | 141 kts | 89° |
| 2026-04-21 09:12 | 53.58218 | 9.88570 | 1519 ft | 137 kts | 80° |
| 2026-04-21 09:12 | 53.58627 | 9.89997 | 1072 ft | 136 kts | 51° |
| 2026-04-21 09:13 | 53.59295 | 9.91184 | 808 ft | 138 kts | 51° |
| 2026-04-21 09:13 | 53.59925 | 9.92521 | 622 ft | 138 kts | 51° |
| 2026-04-21 09:13 | 53.60538 | 9.93764 | 410 ft | 155 kts | 52° |
| 2026-04-21 09:13 | 53.61229 | 9.95160 | 259 ft | 161 kts | 52° |
| 2026-04-21 09:14 | 53.61924 | 9.96558 | 58 ft | 139 kts | 52° |
| 2026-04-21 09:14 | 53.62386 | 9.97513 | 40 ft | 54 kts | 50° |
| 2026-04-21 09:14 | 53.62451 | 9.97800 | 41 ft | 20 kts | 116° |
| 2026-04-21 09:14 | 53.62428 | 9.97906 | 45 ft | 7 kts | 77° |
| 2026-04-21 09:15 | 53.62442 | 9.98015 | 47 ft | 10 kts | 79° |
| 2026-04-21 09:15 | 53.62516 | 9.98203 | 45 ft | 24 kts | 50° |
| 2026-04-21 09:15 | 53.62608 | 9.98386 | 46 ft | 17 kts | 52° |
| 2026-04-21 09:15 | 53.62673 | 9.98519 | 47 ft | 14 kts | 50° |
| 2026-04-21 09:16 | 53.62744 | 9.98660 | 47 ft | 17 kts | 52° |
| 2026-04-21 09:16 | 53.62796 | 9.98768 | 44 ft | 12 kts | 49° |
| 2026-04-21 09:16 | 53.62836 | 9.98884 | 45 ft | 10 kts | 105° |
| 2026-04-21 09:16 | 53.62802 | 9.98944 | 45 ft | 8 kts | 140° |
| 2026-04-21 09:17 | 53.62786 | 9.99008 | 44 ft | 3 kts | 59° |
| 2026-04-21 09:17 | 53.62812 | 9.99088 | 47 ft | 7 kts | 63° |
| 2026-04-21 09:17 | 53.62825 | 9.99132 | 47 ft | 0 kts | 64° |